Terminal Aerodrome Forecast
Issued by NWS

Home | Current Version | Previous Version | Text Only | Print | Product List | Glossary On
Versions: 1 2 3 4 5 6 7 8 9 10 11 12 13 14 15 16 17 18 19 20 21 22 23 24 25 26 27
558
FTUS46 KSEW 252114 AAA
TAFSEA
TAF AMD
KSEA 252114Z 2521/2624 33006KT P6SM FEW040
     FM260000 36007KT P6SM SKC
     FM260400 03004KT P6SM SKC
     FM261200 VRB03KT P6SM SKC
     FM261800 32005KT P6SM SKC
     FM262200 35006KT P6SM SKC=

USA.gov is the U.S. government's official web portal to all federal, state and local government web resources and services.